Time;durP1;ratioP1;P1;durP2;ratioP2;P2;SDS_P1;SDS_P2;PMS_P1;PMS_P2;Temp;Humidity;BMP_temperature;BMP_pressure;BME280_temperature;BME280_humidity;BME280_pressure;Samples;Min_cycle;Max_cycle;Signal;HPM_P1;HPM_P2
2021/03/25 00:01:57;;;;;;;3.00;2.47;;;;;;;3.77;59.22;96044.59;5074036;28;20610;-73
2021/03/25 00:04:22;;;;;;;4.80;2.77;;;;;;;3.72;59.48;96044.06;5072744;28;20179;-73
2021/03/25 00:06:51;;;;;;;5.97;2.80;;;;;;;3.65;59.81;96045.34;5056273;28;20184;-74
2021/03/25 00:09:19;;;;;;;4.43;3.43;;;;;;;3.70;59.56;96041.56;5072806;28;20169;-74
2021/03/25 00:11:44;;;;;;;3.47;2.70;;;;;;;3.50;60.63;96039.38;5072777;28;20225;-74
2021/03/25 00:14:10;;;;;;;3.40;2.80;;;;;;;3.39;61.36;96037.47;5072846;28;20198;-74
2021/03/25 00:16:35;;;;;;;4.53;2.90;;;;;;;3.41;61.81;96030.50;5074805;28;20711;-74
2021/03/25 00:19:01;;;;;;;3.60;2.73;;;;;;;3.33;62.05;96032.69;5077904;28;20173;-73
2021/03/25 00:21:27;;;;;;;6.37;2.60;;;;;;;3.34;62.03;96034.34;5076817;28;20185;-74
2021/03/25 00:23:52;;;;;;;4.80;3.50;;;;;;;3.45;61.78;96036.28;5076962;28;20621;-74
2021/03/25 00:26:17;;;;;;;4.63;3.10;;;;;;;3.40;62.41;96038.31;5060608;28;20177;-74
2021/03/25 00:28:42;;;;;;;4.00;3.10;;;;;;;3.25;63.40;96037.47;5078013;28;20190;-74
2021/03/25 00:31:08;;;;;;;4.77;3.23;;;;;;;3.22;62.89;96024.81;5059922;28;20515;-74
2021/03/25 00:33:33;;;;;;;4.07;2.80;;;;;;;3.06;64.10;96024.91;5076555;28;20201;-73
2021/03/25 00:35:58;;;;;;;5.20;3.47;;;;;;;3.05;63.78;96023.25;5077907;28;20204;-74
2021/03/25 00:38:24;;;;;;;6.43;3.90;;;;;;;2.96;64.42;96018.66;5078154;28;20184;-74
2021/03/25 00:40:50;;;;;;;3.43;3.00;;;;;;;3.01;64.36;96024.34;5077263;28;20188;-73
2021/03/25 00:43:19;;;;;;;7.17;3.90;;;;;;;3.04;65.00;96021.59;5055665;28;20289;-74
2021/03/25 00:45:46;;;;;;;6.63;4.50;;;;;;;3.05;65.07;96009.59;5055238;28;20177;-74
2021/03/25 00:48:13;;;;;;;5.40;3.53;;;;;;;3.25;65.23;96019.50;5072439;28;20606;-74
2021/03/25 00:50:41;;;;;;;5.73;4.00;;;;;;;3.29;64.74;96012.44;5055700;28;20214;-74
2021/03/25 00:53:09;;;;;;;5.80;4.30;;;;;;;3.37;64.94;96007.69;5055366;28;20212;-74
2021/03/25 00:55:34;;;;;;;5.97;4.07;;;;;;;3.38;65.34;96009.34;5071693;28;20203;-74
2021/03/25 00:58:00;;;;;;;9.23;4.63;;;;;;;3.48;65.48;96005.28;5071993;28;20550;-74
2021/03/25 01:00:39;;;;;;;8.47;4.70;;;;;;;3.39;65.85;96000.72;5055191;28;20645;-74
2021/03/25 01:03:06;;;;;;;7.97;5.73;;;;;;;3.48;66.10;96007.03;5071892;28;20192;-74
2021/03/25 01:05:32;;;;;;;8.87;4.90;;;;;;;3.67;65.76;96005.81;5072892;28;20173;-74
2021/03/25 01:07:57;;;;;;;7.53;4.40;;;;;;;3.67;65.73;96000.66;5071734;28;20180;-74
2021/03/25 01:10:27;;;;;;;7.07;4.73;;;;;;;3.80;65.77;95995.63;5071800;28;20185;-74
2021/03/25 01:12:52;;;;;;;7.73;4.43;;;;;;;3.81;65.89;95997.25;5072627;28;20278;-74
2021/03/25 01:15:18;;;;;;;7.70;4.93;;;;;;;3.89;65.53;96000.19;5071266;28;20283;-73
2021/03/25 01:17:55;;;;;;;10.87;5.70;;;;;;;3.84;65.71;95998.81;5071523;28;20178;-74
2021/03/25 01:20:32;;;;;;;8.27;5.10;;;;;;;3.92;65.79;95992.25;5071584;28;20184;-74
2021/03/25 01:22:58;;;;;;;10.60;5.07;;;;;;;3.84;65.99;95996.22;5071068;28;20193;-74
2021/03/25 01:25:27;;;;;;;5.60;4.60;;;;;;;3.83;66.52;95992.03;5071233;28;20542;-74
2021/03/25 01:27:53;;;;;;;6.53;5.00;;;;;;;3.84;66.62;95980.81;5071378;28;20557;-74
2021/03/25 01:30:18;;;;;;;6.37;4.77;;;;;;;3.76;66.53;95983.88;5054678;28;20173;-73
2021/03/25 01:32:44;;;;;;;9.00;5.23;;;;;;;3.69;67.34;95985.97;5054507;28;20208;-74
2021/03/25 01:35:10;;;;;;;7.57;4.97;;;;;;;3.65;67.33;95976.81;5072113;28;20205;-74
2021/03/25 01:37:41;;;;;;;8.80;5.57;;;;;;;3.64;67.55;95975.19;5071126;28;20181;-74
2021/03/25 01:40:11;;;;;;;7.07;5.50;;;;;;;3.58;67.82;95967.84;5071214;28;20180;-73
2021/03/25 01:42:36;;;;;;;8.37;5.77;;;;;;;3.64;67.55;95971.78;5054345;28;20201;-73
2021/03/25 01:45:30;;;;;;;8.60;5.73;;;;;;;3.83;67.40;95967.16;5070691;28;20177;-74
2021/03/25 01:48:00;;;;;;;6.47;4.57;;;;;;;3.87;66.42;95967.78;5071959;28;20186;-74
2021/03/25 01:50:25;;;;;;;7.17;5.07;;;;;;;3.78;66.64;95970.91;5070882;28;20295;-74
2021/03/25 01:52:55;;;;;;;9.73;5.43;;;;;;;3.86;66.50;95961.00;5070855;28;20324;-73
2021/03/25 01:55:35;;;;;;;7.80;5.27;;;;;;;4.09;65.46;95964.69;5070585;28;20246;-73
2021/03/25 01:58:19;;;;;;;9.43;4.53;;;;;;;4.11;65.15;95952.56;5050653;28;20193;-73
2021/03/25 02:01:07;;;;;;;8.13;4.50;;;;;;;4.17;64.96;95952.16;5067354;28;20173;-74
2021/03/25 02:04:00;;;;;;;5.40;4.30;;;;;;;4.05;65.45;95963.22;5067307;28;20258;-74
2021/03/25 02:06:52;;;;;;;6.33;4.43;;;;;;;4.13;64.77;95954.09;5051779;28;20586;-74
2021/03/25 02:09:32;;;;;;;8.30;4.40;;;;;;;4.07;65.21;95948.53;5051673;28;20181;-74
2021/03/25 02:12:07;;;;;;;7.73;4.37;;;;;;;4.04;65.16;95948.72;5051702;28;20583;-74
2021/03/25 02:14:44;;;;;;;7.50;4.53;;;;;;;4.01;65.42;95952.31;5050150;28;20305;-74
2021/03/25 02:17:20;;;;;;;8.40;4.60;;;;;;;3.96;65.00;95950.03;5067158;28;20242;-73
2021/03/25 02:20:24;;;;;;;5.37;4.37;;;;;;;3.86;65.35;95943.81;5067227;28;20174;-74
2021/03/25 02:23:23;;;;;;;6.70;4.50;;;;;;;3.91;64.63;95946.13;5051638;28;20193;-73
2021/03/25 02:26:02;;;;;;;5.80;3.80;;;;;;;3.98;64.35;95947.38;5050059;28;20209;-74
2021/03/25 02:28:41;;;;;;;6.17;4.27;;;;;;;4.00;63.57;95947.28;5050288;28;20234;-74
2021/03/25 02:31:13;;;;;;;5.63;3.93;;;;;;;4.02;63.70;95942.84;5067155;28;20193;-74
2021/03/25 02:33:40;;;;;;;6.73;4.20;;;;;;;4.15;63.22;95936.84;5050669;28;20700;-74
2021/03/25 02:36:08;;;;;;;5.93;4.40;;;;;;;4.24;62.47;95933.69;5066600;28;20297;-74
2021/03/25 02:38:42;;;;;;;8.20;3.97;;;;;;;4.03;63.27;95929.09;5050221;28;20213;-74
2021/03/25 02:41:12;;;;;;;5.17;3.23;;;;;;;4.05;63.35;95930.63;5050612;28;20694;-74
2021/03/25 02:43:57;;;;;;;5.50;3.77;;;;;;;4.04;63.41;95928.97;5066770;28;20230;-74
2021/03/25 02:46:33;;;;;;;5.63;4.30;;;;;;;3.97;63.35;95922.59;5066602;28;20174;-74
2021/03/25 02:49:02;;;;;;;5.97;3.90;;;;;;;4.00;63.27;95935.25;5066896;28;20200;-74
2021/03/25 02:51:40;;;;;;;5.37;4.03;;;;;;;3.89;63.56;95929.97;5066714;28;20174;-74
2021/03/25 02:54:05;;;;;;;7.37;4.07;;;;;;;3.93;63.62;95921.97;5050445;28;20546;-74
2021/03/25 02:56:36;;;;;;;5.17;3.90;;;;;;;3.87;63.66;95929.22;5066559;28;20197;-74
2021/03/25 02:59:09;;;;;;;7.33;4.27;;;;;;;3.71;64.21;95924.25;5066571;28;20265;-74
2021/03/25 03:01:39;;;;;;;7.30;3.80;;;;;;;3.53;64.79;95922.81;5066789;28;20263;-73
2021/03/25 03:04:08;;;;;;;5.57;3.77;;;;;;;3.44;64.76;95921.66;5066733;28;20189;-74
2021/03/25 03:06:37;;;;;;;4.93;3.73;;;;;;;3.28;65.25;95915.84;5049624;28;20193;-74
2021/03/25 03:09:07;;;;;;;5.60;4.20;;;;;;;3.28;65.61;95920.97;5049885;28;20715;-74
2021/03/25 03:11:35;;;;;;;5.60;3.70;;;;;;;3.21;65.85;95919.69;5066330;28;21309;-74
2021/03/25 03:14:04;;;;;;;4.73;3.77;;;;;;;3.16;65.86;95919.13;5049949;28;20206;-74
2021/03/25 03:16:37;;;;;;;6.33;4.03;;;;;;;3.15;65.86;95918.31;5066310;28;20210;-74
2021/03/25 03:19:10;;;;;;;5.70;3.83;;;;;;;3.23;65.71;95912.72;5066620;28;20178;-73
2021/03/25 03:21:42;;;;;;;6.20;3.83;;;;;;;3.09;65.79;95916.97;5066481;28;20186;-74
2021/03/25 03:24:09;;;;;;;3.90;3.50;;;;;;;2.97;65.93;95917.69;5066397;28;20739;-74
2021/03/25 03:26:43;;;;;;;5.03;3.60;;;;;;;2.90;66.35;95911.25;5049724;28;20230;-74
2021/03/25 03:29:09;;;;;;;5.37;3.50;;;;;;;2.82;66.56;95909.16;5050027;28;20268;-74
2021/03/25 03:31:42;;;;;;;3.67;2.80;;;;;;;2.78;67.14;95910.25;5066350;28;20185;-74
2021/03/25 03:34:11;;;;;;;5.87;3.97;;;;;;;2.81;66.73;95907.50;5049664;28;20639;-74
2021/03/25 03:36:38;;;;;;;5.53;3.60;;;;;;;2.84;66.56;95911.66;5066117;28;20205;-74
2021/03/25 03:39:11;;;;;;;5.93;3.47;;;;;;;2.90;66.29;95916.41;5066429;28;20178;-74
2021/03/25 03:41:53;;;;;;;5.97;3.33;;;;;;;3.00;65.89;95920.06;5066242;28;20208;-74
2021/03/25 03:44:26;;;;;;;5.17;3.40;;;;;;;2.94;65.95;95911.91;5066437;28;20181;-74
2021/03/25 03:46:52;;;;;;;5.20;3.40;;;;;;;3.07;65.41;95921.34;5053131;28;20646;-74
2021/03/25 03:49:21;;;;;;;4.83;3.30;;;;;;;3.04;65.42;95913.84;5069985;28;20183;-73
2021/03/25 03:51:49;;;;;;;4.80;3.27;;;;;;;2.99;65.30;95915.84;5069873;28;20243;-73
2021/03/25 03:54:14;;;;;;;3.77;3.37;;;;;;;2.97;65.31;95919.44;5054162;28;20182;-73
2021/03/25 03:56:49;;;;;;;6.60;3.93;;;;;;;2.92;65.69;95914.59;5069739;28;20277;-74
2021/03/25 03:59:28;;;;;;;5.30;3.53;;;;;;;2.84;65.69;95909.91;5052931;28;20181;-74
2021/03/25 04:02:00;;;;;;;4.63;3.23;;;;;;;2.80;66.04;95913.56;5069723;28;20189;-74
2021/03/25 04:04:31;;;;;;;4.10;3.33;;;;;;;2.66;66.04;95912.75;5069562;28;20633;-74
2021/03/25 04:07:00;;;;;;;5.93;3.23;;;;;;;2.59;66.90;95914.03;5054194;28;20186;-74
2021/03/25 04:09:39;;;;;;;4.73;3.30;;;;;;;2.49;66.74;95909.44;5069637;28;20184;-74
2021/03/25 04:12:09;;;;;;;5.43;3.17;;;;;;;2.44;67.21;95908.03;5069216;28;20212;-73
2021/03/25 04:14:58;;;;;;;6.37;3.57;;;;;;;2.49;66.81;95906.88;5069125;28;20661;-74
2021/03/25 04:17:29;;;;;;;4.90;3.37;;;;;;;2.44;67.06;95911.41;5069436;28;20237;-74
2021/03/25 04:19:57;;;;;;;4.87;2.97;;;;;;;2.49;66.61;95906.03;5069390;28;20182;-74
2021/03/25 04:22:31;;;;;;;5.30;3.57;;;;;;;2.66;65.72;95902.50;5053796;28;20344;-74
2021/03/25 04:25:25;;;;;;;5.60;3.10;;;;;;;2.81;64.64;95904.94;5052301;28;20179;-74
2021/03/25 04:27:58;;;;;;;3.90;3.10;;;;;;;2.79;64.52;95905.97;5051069;28;20204;-74
2021/03/25 04:30:27;;;;;;;3.63;2.83;;;;;;;2.92;63.77;95904.31;5052443;28;20770;-74
2021/03/25 04:32:52;;;;;;;4.60;3.20;;;;;;;2.94;63.62;95905.03;5052309;28;20205;-74
2021/03/25 04:35:20;;;;;;;3.70;2.83;;;;;;;2.98;63.71;95903.09;5068818;28;20230;-74
2021/03/25 04:37:47;;;;;;;4.80;3.07;;;;;;;2.95;63.88;95904.13;5069139;28;20259;-74
2021/03/25 04:40:26;;;;;;;4.83;2.90;;;;;;;2.92;63.26;95899.19;5052236;28;20209;-74
2021/03/25 04:42:52;;;;;;;4.50;3.07;;;;;;;2.88;64.02;95897.72;5068967;28;20255;-74
2021/03/25 04:45:46;;;;;;;4.70;2.93;;;;;;;2.91;63.46;95905.22;5068548;28;20178;-74
2021/03/25 04:48:14;;;;;;;4.90;2.90;;;;;;;2.94;63.57;95904.22;5068891;28;20471;-74
2021/03/25 04:50:42;;;;;;;4.40;2.90;;;;;;;2.99;62.74;95897.88;5052054;28;20184;-74
2021/03/25 04:53:20;;;;;;;5.10;2.90;;;;;;;3.12;62.16;95901.38;5068705;28;20667;-74
2021/03/25 04:55:45;;;;;;;4.63;2.87;;;;;;;3.18;62.34;95904.47;5051356;28;20199;-74
2021/03/25 04:58:15;;;;;;;4.43;2.87;;;;;;;3.22;61.88;95900.81;5051643;28;20616;-73
2021/03/25 05:00:42;;;;;;;4.73;2.90;;;;;;;3.19;61.92;95906.13;5068637;28;20206;-74
2021/03/25 05:03:11;;;;;;;3.87;2.80;;;;;;;3.35;61.04;95901.69;5068498;28;20201;-74
2021/03/25 05:05:36;;;;;;;3.87;2.70;;;;;;;3.63;59.79;95903.38;5051415;28;20268;-74
2021/03/25 05:08:26;;;;;;;4.80;3.20;;;;;;;3.73;59.84;95906.19;5068313;28;20177;-74
2021/03/25 05:10:55;;;;;;;4.87;2.80;;;;;;;3.72;59.39;95902.78;5068351;28;20205;-74
2021/03/25 05:13:33;;;;;;;7.37;3.40;;;;;;;3.67;59.66;95905.63;5052810;28;20260;-74
2021/03/25 05:16:17;;;;;;;5.20;3.30;;;;;;;3.58;59.89;95910.53;5068038;28;20208;-73
2021/03/25 05:18:57;;;;;;;5.00;3.30;;;;;;;3.52;60.31;95914.28;5051641;28;20184;-74
2021/03/25 05:21:33;;;;;;;4.30;3.17;;;;;;;3.33;61.86;95918.94;5068365;28;20537;-74
2021/03/25 05:24:08;;;;;;;4.90;3.70;;;;;;;3.12;63.36;95927.03;5051508;28;20212;-73
2021/03/25 05:26:43;;;;;;;5.43;3.80;;;;;;;2.82;64.27;95918.59;5051168;28;20176;-74
2021/03/25 05:29:09;;;;;;;5.30;3.87;;;;;;;2.68;64.79;95918.59;5068050;28;20640;-74
2021/03/25 05:31:36;;;;;;;5.43;4.07;;;;;;;2.57;65.91;95918.41;5051323;28;20634;-74
2021/03/25 05:34:03;;;;;;;5.97;4.10;;;;;;;2.53;65.66;95920.31;5051274;28;20377;-73
2021/03/25 05:36:30;;;;;;;6.67;4.13;;;;;;;2.53;65.57;95913.44;5052255;28;20204;-74
2021/03/25 05:38:55;;;;;;;7.83;4.13;;;;;;;2.68;65.20;95918.59;5067841;28;20221;-74
2021/03/25 05:41:27;;;;;;;6.93;4.50;;;;;;;2.81;64.65;95922.06;5050894;28;20209;-74
2021/03/25 05:44:29;;;;;;;4.80;3.70;;;;;;;3.01;63.52;95921.72;5052634;28;20178;-74
2021/03/25 05:47:21;;;;;;;7.43;3.93;;;;;;;3.23;62.90;95915.28;5052361;28;20656;-74
2021/03/25 05:50:37;;;;;;;4.60;3.50;;;;;;;3.42;61.99;95924.31;5067546;28;20265;-74
2021/03/25 05:53:36;;;;;;;4.13;2.50;;;;;;;3.52;62.03;95919.44;5021192;28;20215;-78
2021/03/25 05:56:21;;;;;;;4.43;2.90;;;;;;;3.70;61.77;95923.41;5054987;28;20218;-73
2021/03/25 05:58:50;;;;;;;5.07;3.17;;;;;;;3.80;61.65;95922.81;5053822;28;20623;-73
2021/03/25 06:01:46;;;;;;;4.07;2.33;;;;;;;3.93;61.15;95913.44;5060539;28;20185;-73
2021/03/25 06:04:15;;;;;;;6.87;3.03;;;;;;;4.10;61.16;95920.88;5070227;28;20540;-71
2021/03/25 06:06:50;;;;;;;3.67;2.57;;;;;;;4.32;60.71;95915.16;5067377;28;20179;-73
2021/03/25 06:09:41;;;;;;;5.30;2.93;;;;;;;4.39;60.23;95928.44;5060834;28;20217;-74
2021/03/25 06:12:14;;;;;;;5.10;3.10;;;;;;;4.66;59.37;95921.47;5060887;28;20216;-73
2021/03/25 06:15:19;;;;;;;5.57;3.37;;;;;;;4.83;58.27;95922.91;5054937;28;20232;-72
2021/03/25 06:17:50;;;;;;;4.27;3.03;;;;;;;5.06;57.60;95927.34;5057664;28;20707;-73
2021/03/25 06:20:25;;;;;;;9.40;3.60;;;;;;;5.24;57.16;95927.84;5064075;28;20189;-73
2021/03/25 06:23:30;;;;;;;4.93;2.93;;;;;;;5.42;56.69;95930.88;5037860;28;20247;-73
2021/03/25 06:26:02;;;;;;;4.67;3.30;;;;;;;5.59;56.27;95927.94;5056582;28;20174;-74
2021/03/25 06:28:30;;;;;;;5.57;3.63;;;;;;;5.80;55.56;95935.09;5050851;28;20192;-73
2021/03/25 06:31:25;;;;;;;3.87;2.97;;;;;;;5.93;54.88;95928.19;5058944;28;20177;-73
2021/03/25 06:33:57;;;;;;;3.87;2.90;;;;;;;6.06;54.38;95930.69;5059251;28;20267;-73
2021/03/25 06:36:49;;;;;;;5.50;3.03;;;;;;;6.19;54.18;95934.03;5062801;28;20231;-73
2021/03/25 06:39:34;;;;;;;5.07;2.83;;;;;;;6.31;53.86;95940.88;5060786;28;20198;-72
2021/03/25 06:42:19;;;;;;;4.13;2.63;;;;;;;6.41;53.42;95939.25;5056328;28;20198;-73
2021/03/25 06:44:52;;;;;;;5.93;3.07;;;;;;;6.50;53.23;95943.75;5061547;28;20180;-73
2021/03/25 06:47:33;;;;;;;5.53;3.37;;;;;;;6.60;53.10;95949.03;5053380;28;20189;-73
2021/03/25 06:50:02;;;;;;;4.17;3.00;;;;;;;6.67;52.77;95944.25;5065862;28;20180;-74
2021/03/25 06:52:31;;;;;;;7.50;2.90;;;;;;;6.78;53.06;95950.25;5055873;28;20241;-74
2021/03/25 06:55:07;;;;;;;5.03;3.50;;;;;;;6.88;53.65;95949.56;5082079;28;20561;-74
2021/03/25 06:57:58;;;;;;;5.63;2.83;;;;;;;6.87;54.99;95946.16;5057595;28;20192;-74
2021/03/25 07:00:25;;;;;;;7.00;3.10;;;;;;;6.96;55.02;95954.97;5052170;28;20220;-73
2021/03/25 07:02:52;;;;;;;5.93;3.23;;;;;;;7.07;54.97;95958.41;5066844;28;20205;-72
2021/03/25 07:05:21;;;;;;;5.40;3.30;;;;;;;7.18;54.90;95955.00;5061974;28;20177;-73
2021/03/25 07:07:52;;;;;;;4.30;2.60;;;;;;;7.31;53.68;95960.03;5048433;28;20619;-74
2021/03/25 07:10:17;;;;;;;6.30;3.07;;;;;;;7.44;52.31;95967.69;5061294;28;20622;-73
2021/03/25 07:12:46;;;;;;;4.27;2.63;;;;;;;7.61;51.05;95968.03;5056726;28;20224;-73
2021/03/25 07:15:23;;;;;;;4.60;2.70;;;;;;;7.74;50.70;95962.72;5049004;28;20201;-74
2021/03/25 07:17:49;;;;;;;3.77;2.73;;;;;;;7.87;50.00;95960.00;5056924;28;20578;-73
2021/03/25 07:20:36;;;;;;;3.27;2.23;;;;;;;8.02;50.15;95965.72;5069199;28;20182;-73
2021/03/25 07:23:08;;;;;;;3.70;2.50;;;;;;;8.16;50.01;95971.44;5082328;28;20205;-74
2021/03/25 07:25:36;;;;;;;5.87;3.83;;;;;;;8.30;52.17;95969.50;5066514;28;20265;-74
2021/03/25 07:28:03;;;;;;;6.20;4.37;;;;;;;8.39;52.58;95968.78;5054880;28;20178;-73
2021/03/25 07:30:41;;;;;;;6.77;4.63;;;;;;;8.39;52.85;95971.38;5062231;28;20287;-73
2021/03/25 07:33:10;;;;;;;7.93;5.07;;;;;;;8.48;52.91;95973.22;5050125;28;20193;-73
2021/03/25 07:35:39;;;;;;;7.17;5.03;;;;;;;8.59;52.61;95974.97;5059617;28;20209;-74
2021/03/25 07:38:28;;;;;;;7.30;4.17;;;;;;;8.70;52.88;95970.53;5039036;28;20580;-82
2021/03/25 07:41:06;;;;;;;5.23;4.07;;;;;;;8.84;52.45;95977.19;5056536;28;20713;-77
2021/03/25 07:43:53;;;;;;;6.70;3.73;;;;;;;8.98;51.16;95979.44;5064592;28;20202;-78
2021/03/25 07:46:29;;;;;;;7.20;3.93;;;;;;;9.13;50.39;95979.13;5069123;28;20211;-79
2021/03/25 07:49:01;;;;;;;6.30;4.13;;;;;;;9.23;48.82;95980.81;5042717;28;20335;-74
2021/03/25 07:51:27;;;;;;;6.33;3.80;;;;;;;9.30;48.41;95979.34;5045299;28;20227;-75
2021/03/25 07:54:11;;;;;;;4.83;3.03;;;;;;;9.39;46.22;95982.94;5053390;28;20177;-75
2021/03/25 07:56:36;;;;;;;5.40;3.10;;;;;;;9.45;46.19;95982.41;5064852;28;20248;-74
2021/03/25 07:59:01;;;;;;;3.47;2.93;;;;;;;9.60;44.68;95988.06;5045452;28;20174;-74
2021/03/25 08:01:27;;;;;;;5.40;3.10;;;;;;;9.64;44.40;95982.50;5074874;28;20193;-74
2021/03/25 08:03:54;;;;;;;4.30;2.70;;;;;;;9.73;44.13;95985.28;5065749;28;20276;-75
2021/03/25 08:06:25;;;;;;;4.23;2.53;;;;;;;9.78;44.38;95993.47;5067833;28;20235;-74
2021/03/25 08:08:59;;;;;;;3.40;2.37;;;;;;;9.86;44.06;95991.03;5066789;28;20193;-74
2021/03/25 08:11:24;;;;;;;3.90;2.70;;;;;;;9.84;43.66;95996.34;5067587;28;20193;-74
2021/03/25 08:13:53;;;;;;;7.03;3.23;;;;;;;9.96;42.88;95996.25;5069166;28;20186;-75
2021/03/25 08:16:19;;;;;;;3.20;2.40;;;;;;;9.98;44.36;95989.97;5063659;28;20578;-74
2021/03/25 08:18:54;;;;;;;3.10;2.37;;;;;;;9.98;44.71;95999.50;5052257;28;20269;-74
2021/03/25 08:21:44;;;;;;;3.40;2.43;;;;;;;10.11;44.58;95998.34;5067093;28;20177;-74
2021/03/25 08:24:22;;;;;;;4.30;2.87;;;;;;;10.22;44.07;95994.81;5068184;28;20187;-74
2021/03/25 08:27:14;;;;;;;4.53;2.40;;;;;;;10.28;44.60;95996.06;5071999;28;20235;-74
2021/03/25 08:29:59;;;;;;;3.30;2.50;;;;;;;10.36;44.84;95994.44;5069005;28;20182;-74
2021/03/25 08:32:41;;;;;;;4.13;3.00;;;;;;;10.36;45.89;95996.22;5059258;28;20205;-74
2021/03/25 08:35:12;;;;;;;6.13;3.50;;;;;;;10.57;46.29;95989.13;5060647;28;20228;-74
2021/03/25 08:38:03;;;;;;;3.97;2.70;;;;;;;10.62;46.21;95993.91;5060872;28;20190;-74
2021/03/25 08:40:40;;;;;;;3.70;2.93;;;;;;;10.57;45.28;95993.50;5070360;28;20227;-73
2021/03/25 08:43:06;;;;;;;2.57;2.37;;;;;;;10.79;45.68;95998.41;5068577;28;20290;-74
2021/03/25 08:45:51;;;;;;;3.87;3.00;;;;;;;10.71;45.27;96003.47;5068993;28;20181;-74
2021/03/25 08:48:19;;;;;;;8.73;3.20;;;;;;;10.80;45.36;96000.06;5056338;28;20629;-74
2021/03/25 08:50:52;;;;;;;5.33;3.40;;;;;;;10.75;45.80;95999.63;5070512;28;20196;-75
2021/03/25 08:53:55;;;;;;;4.70;2.93;;;;;;;10.82;46.36;95997.31;5044975;28;20208;-74
2021/03/25 08:56:41;;;;;;;2.80;2.50;;;;;;;10.81;46.41;96000.88;5055217;28;20290;-74
2021/03/25 08:59:27;;;;;;;3.93;3.47;;;;;;;10.76;46.45;95998.69;5043642;28;20235;-74
2021/03/25 09:01:56;;;;;;;6.70;3.30;;;;;;;10.82;45.78;95998.13;5062990;28;20677;-74
2021/03/25 09:04:24;;;;;;;4.70;3.27;;;;;;;10.83;45.43;95999.78;5069575;28;20212;-74
2021/03/25 09:06:50;;;;;;;6.63;3.97;;;;;;;10.93;44.58;95997.97;5067976;28;20553;-74
2021/03/25 09:09:28;;;;;;;6.13;3.50;;;;;;;10.91;46.02;96009.47;5056999;28;20638;-79
2021/03/25 09:11:56;;;;;;;5.80;3.80;;;;;;;11.10;45.15;96006.03;5042697;28;20217;-76
2021/03/25 09:14:23;;;;;;;9.83;4.70;;;;;;;11.02;45.01;96002.34;5063994;28;20177;-77
2021/03/25 09:16:48;;;;;;;9.47;4.40;;;;;;;11.24;43.80;96003.00;5071942;28;20182;-77
2021/03/25 09:19:20;;;;;;;7.77;4.60;;;;;;;11.18;44.80;96003.56;5056256;28;20191;-76
2021/03/25 09:21:47;;;;;;;8.47;4.20;;;;;;;11.27;44.56;96008.72;5053900;28;20197;-76
2021/03/25 09:24:13;;;;;;;7.73;4.53;;;;;;;11.27;43.96;96013.13;5084922;28;20238;-76
2021/03/25 09:26:46;;;;;;;9.23;4.93;;;;;;;11.20;44.55;96012.03;5060883;28;20185;-77
2021/03/25 09:29:12;;;;;;;8.30;4.53;;;;;;;11.30;43.46;96012.81;5085028;28;20178;-76
2021/03/25 09:31:55;;;;;;;9.17;4.93;;;;;;;11.45;44.46;96008.81;5082720;28;20192;-76
2021/03/25 09:34:23;;;;;;;12.33;6.50;;;;;;;11.51;43.33;96010.88;5055024;28;20190;-74
2021/03/25 09:37:12;;;;;;;13.37;6.33;;;;;;;11.80;44.18;96015.16;5062209;28;20182;-75
2021/03/25 09:39:38;;;;;;;11.33;5.80;;;;;;;11.82;43.36;96018.44;5051829;28;20661;-77
2021/03/25 09:42:15;;;;;;;11.40;6.10;;;;;;;11.86;43.05;96018.00;5064330;28;20209;-76
2021/03/25 09:44:42;;;;;;;10.97;6.17;;;;;;;11.91;42.18;96014.97;5067382;28;20623;-76
2021/03/25 09:47:11;;;;;;;11.23;6.77;;;;;;;12.00;42.96;96023.69;5068036;28;20185;-75
2021/03/25 09:49:57;;;;;;;12.47;6.13;;;;;;;11.93;41.07;96023.47;5058136;28;20206;-76
2021/03/25 09:52:29;;;;;;;10.70;6.33;;;;;;;12.05;42.80;96019.69;5058121;28;20219;-77
2021/03/25 09:54:54;;;;;;;13.13;6.80;;;;;;;11.98;42.18;96018.63;5059962;28;20207;-80
2021/03/25 09:57:35;;;;;;;11.33;6.87;;;;;;;11.91;41.57;96023.59;5062476;28;20181;-78
2021/03/25 10:00:33;;;;;;;11.30;6.33;;;;;;;11.88;41.77;96017.88;5057866;28;20185;-75
2021/03/25 10:03:02;;;;;;;10.73;6.03;;;;;;;11.90;41.58;96019.34;5057094;28;20228;-76
2021/03/25 10:05:32;;;;;;;13.40;6.30;;;;;;;11.98;42.15;96013.44;5063793;28;20210;-75
2021/03/25 10:08:20;;;;;;;11.07;6.33;;;;;;;12.08;42.29;96014.19;5060039;28;20182;-75
2021/03/25 10:10:50;;;;;;;9.70;5.47;;;;;;;11.99;41.49;96003.84;5068994;28;20219;-77
2021/03/25 10:13:23;;;;;;;10.30;5.80;;;;;;;12.17;42.02;96007.28;5055252;28;20209;-78
2021/03/25 10:15:57;;;;;;;8.97;5.60;;;;;;;12.02;41.69;96003.56;5056985;28;20629;-76
2021/03/25 10:18:25;;;;;;;10.00;5.70;;;;;;;12.17;40.36;96009.91;5060420;28;20243;-75
2021/03/25 10:21:12;;;;;;;10.47;5.57;;;;;;;12.26;40.96;96008.22;5068385;28;20178;-77
2021/03/25 10:23:37;;;;;;;11.27;5.57;;;;;;;12.27;40.31;96008.06;5074182;28;20641;-75
2021/03/25 10:26:09;;;;;;;11.43;5.37;;;;;;;12.32;40.78;96003.25;5060994;28;20174;-78
2021/03/25 10:28:38;;;;;;;11.30;6.03;;;;;;;12.34;40.58;96003.09;5066000;28;20645;-76
2021/03/25 10:31:07;;;;;;;8.47;5.27;;;;;;;12.43;40.25;96003.03;5075527;28;20177;-76
2021/03/25 10:33:35;;;;;;;10.63;5.60;;;;;;;12.50;40.27;96000.66;5067268;28;20631;-77
2021/03/25 10:36:04;;;;;;;9.30;5.63;;;;;;;12.42;39.43;96003.97;5061551;28;20233;-76
2021/03/25 10:38:35;;;;;;;11.43;5.60;;;;;;;12.36;39.59;96004.56;5056489;28;20185;-77
2021/03/25 10:41:02;;;;;;;8.23;5.43;;;;;;;12.45;39.51;96000.25;5064362;28;20736;-76
2021/03/25 10:43:33;;;;;;;12.23;5.37;;;;;;;12.36;39.42;95998.53;5066128;28;20205;-77
2021/03/25 10:46:06;;;;;;;10.27;5.60;;;;;;;12.28;39.90;95994.09;5070335;28;20177;-77
2021/03/25 10:48:37;;;;;;;9.13;6.13;;;;;;;12.34;40.99;96001.28;5073890;28;20181;-77
2021/03/25 10:51:12;;;;;;;10.43;5.60;;;;;;;12.50;41.18;95985.00;5056673;28;20189;-77
2021/03/25 10:53:50;;;;;;;8.43;5.67;;;;;;;12.56;40.21;95991.44;5071676;28;20215;-77
2021/03/25 10:56:20;;;;;;;10.90;6.27;;;;;;;12.50;39.96;95982.41;5058980;28;20618;-77
2021/03/25 10:58:58;;;;;;;7.87;5.50;;;;;;;12.49;40.58;95975.56;5062366;28;20186;-76
2021/03/25 11:01:28;;;;;;;8.63;6.00;;;;;;;12.64;40.55;95973.28;5072006;28;20185;-77
2021/03/25 11:03:55;;;;;;;9.07;5.20;;;;;;;12.65;40.92;95969.69;5076200;28;20193;-77
2021/03/25 11:06:35;;;;;;;6.67;5.10;;;;;;;12.58;39.55;95969.47;5064596;28;20649;-77
2021/03/25 11:09:10;;;;;;;9.17;5.37;;;;;;;12.80;40.82;95969.94;5060170;28;20216;-76
2021/03/25 11:11:38;;;;;;;8.40;5.03;;;;;;;12.75;39.77;95965.22;5085611;28;20185;-77
2021/03/25 11:14:10;;;;;;;7.30;4.80;;;;;;;12.90;41.09;95965.50;5059890;28;20178;-76
2021/03/25 11:16:35;;;;;;;11.73;6.20;;;;;;;12.75;38.96;95960.81;5050137;28;20281;-76
2021/03/25 11:19:05;;;;;;;8.27;5.20;;;;;;;12.80;39.51;95956.94;5075184;28;20658;-78
2021/03/25 11:21:36;;;;;;;10.03;5.50;;;;;;;12.86;40.84;95961.53;5083486;28;20184;-78
2021/03/25 11:24:29;;;;;;;7.43;5.40;;;;;;;12.96;40.74;95955.25;5064751;28;20170;-77
2021/03/25 11:26:59;;;;;;;9.43;5.73;;;;;;;12.93;39.29;95959.97;5052100;28;20669;-78
2021/03/25 11:29:27;;;;;;;7.57;5.10;;;;;;;12.97;40.63;95950.88;5053502;28;20188;-77
2021/03/25 11:32:16;;;;;;;8.37;5.03;;;;;;;13.13;40.55;95953.59;5062960;28;20197;-77
2021/03/25 11:34:47;;;;;;;6.73;4.70;;;;;;;12.97;40.13;95956.91;5051727;28;20211;-77
2021/03/25 11:37:23;;;;;;;6.97;4.93;;;;;;;12.65;40.38;95947.06;5059768;28;20257;-77
2021/03/25 11:40:14;;;;;;;6.23;4.80;;;;;;;12.85;40.98;95954.69;5068360;28;20656;-77
2021/03/25 11:42:41;;;;;;;9.53;4.83;;;;;;;12.96;40.70;95950.03;5068969;28;20258;-77
2021/03/25 11:45:35;;;;;;;5.93;4.83;;;;;;;12.94;39.81;95945.97;5067156;28;20656;-77
2021/03/25 11:48:01;;;;;;;9.73;5.60;;;;;;;12.94;39.59;95954.59;5070752;28;20178;-78
2021/03/25 11:50:26;;;;;;;9.27;5.60;;;;;;;12.80;39.53;95946.50;5048115;28;20219;-77
2021/03/25 11:53:03;;;;;;;9.30;5.17;;;;;;;12.80;40.21;95955.13;5068977;28;20193;-77
2021/03/25 11:55:42;;;;;;;9.33;5.60;;;;;;;12.63;41.26;95948.16;5059015;28;20209;-77
2021/03/25 11:58:15;;;;;;;9.00;5.70;;;;;;;12.67;40.61;95950.31;5068206;28;20546;-76
2021/03/25 12:01:04;;;;;;;7.67;5.37;;;;;;;12.65;40.56;95949.66;5075494;28;20348;-78
2021/03/25 12:03:45;;;;;;;9.73;5.40;;;;;;;12.71;40.76;95951.66;5056857;28;20197;-77
2021/03/25 12:06:29;;;;;;;7.37;5.00;;;;;;;12.82;40.74;95955.00;5058922;28;20178;-76
2021/03/25 12:09:05;;;;;;;8.67;5.10;;;;;;;13.12;41.22;95949.34;5074408;28;20178;-76
2021/03/25 12:11:33;;;;;;;7.93;5.43;;;;;;;13.25;39.76;95949.81;5074142;28;20268;-77